sensor_id;sensor_type;location;lat;lon;timestamp;temperature;humidity
9371;DHT22;4725;48.384;8.984;2024-02-21T00:00:10;2.40;99.90
9371;DHT22;4725;48.384;8.984;2024-02-21T00:02:37;2.30;99.90
9371;DHT22;4725;48.384;8.984;2024-02-21T00:05:04;2.30;99.90
9371;DHT22;4725;48.384;8.984;2024-02-21T00:07:31;2.40;99.90
9371;DHT22;4725;48.384;8.984;2024-02-21T00:09:59;2.40;99.90
9371;DHT22;4725;48.384;8.984;2024-02-21T00:12:27;2.30;99.90
9371;DHT22;4725;48.384;8.984;2024-02-21T00:14:53;2.10;99.90
9371;DHT22;4725;48.384;8.984;2024-02-21T00:17:20;2.10;99.90
9371;DHT22;4725;48.384;8.984;2024-02-21T00:19:47;2.20;99.90
9371;DHT22;4725;48.384;8.984;2024-02-21T00:22:14;2.20;99.90
9371;DHT22;4725;48.384;8.984;2024-02-21T00:24:41;2.30;99.90
9371;DHT22;4725;48.384;8.984;2024-02-21T00:27:09;2.50;99.90
9371;DHT22;4725;48.384;8.984;2024-02-21T00:29:36;2.60;99.90
9371;DHT22;4725;48.384;8.984;2024-02-21T00:32:05;2.80;99.90
9371;DHT22;4725;48.384;8.984;2024-02-21T00:34:31;2.90;99.90
9371;DHT22;4725;48.384;8.984;2024-02-21T00:36:59;2.90;99.90
9371;DHT22;4725;48.384;8.984;2024-02-21T00:39:25;3.00;99.90
9371;DHT22;4725;48.384;8.984;2024-02-21T00:41:52;3.00;99.90
9371;DHT22;4725;48.384;8.984;2024-02-21T00:44:20;2.90;99.90
9371;DHT22;4725;48.384;8.984;2024-02-21T00:46:47;2.50;99.90
9371;DHT22;4725;48.384;8.984;2024-02-21T00:49:14;2.40;99.90
9371;DHT22;4725;48.384;8.984;2024-02-21T00:51:41;2.40;99.90
9371;DHT22;4725;48.384;8.984;2024-02-21T00:54:08;2.40;99.90
9371;DHT22;4725;48.384;8.984;2024-02-21T00:56:35;2.50;99.90
9371;DHT22;4725;48.384;8.984;2024-02-21T00:59:02;2.60;99.90
9371;DHT22;4725;48.384;8.984;2024-02-21T01:01:30;2.70;99.90
9371;DHT22;4725;48.384;8.984;2024-02-21T01:03:57;2.90;99.90
9371;DHT22;4725;48.384;8.984;2024-02-21T01:06:23;3.00;99.90
9371;DHT22;4725;48.384;8.984;2024-02-21T01:08:50;3.00;99.90
9371;DHT22;4725;48.384;8.984;2024-02-21T01:11:17;3.00;99.90
9371;DHT22;4725;48.384;8.984;2024-02-21T01:13:44;3.10;99.90
9371;DHT22;4725;48.384;8.984;2024-02-21T01:18:40;3.20;99.90
9371;DHT22;4725;48.384;8.984;2024-02-21T01:23:35;3.10;99.90
9371;DHT22;4725;48.384;8.984;2024-02-21T01:26:03;3.20;99.90
9371;DHT22;4725;48.384;8.984;2024-02-21T01:28:30;3.10;99.90
9371;DHT22;4725;48.384;8.984;2024-02-21T01:30:57;3.20;99.90
9371;DHT22;4725;48.384;8.984;2024-02-21T01:33:24;3.10;99.90
9371;DHT22;4725;48.384;8.984;2024-02-21T01:35:52;3.10;99.90
9371;DHT22;4725;48.384;8.984;2024-02-21T01:38:19;3.10;99.90
9371;DHT22;4725;48.384;8.984;2024-02-21T01:40:46;3.00;99.90
9371;DHT22;4725;48.384;8.984;2024-02-21T01:43:17;2.90;99.90
9371;DHT22;4725;48.384;8.984;2024-02-21T01:45:48;2.80;99.90
9371;DHT22;4725;48.384;8.984;2024-02-21T01:48:17;2.80;99.90
9371;DHT22;4725;48.384;8.984;2024-02-21T01:50:44;2.80;99.90
9371;DHT22;4725;48.384;8.984;2024-02-21T01:53:13;2.80;99.90
9371;DHT22;4725;48.384;8.984;2024-02-21T01:55:44;2.80;99.90
9371;DHT22;4725;48.384;8.984;2024-02-21T02:00:41;2.90;99.90
9371;DHT22;4725;48.384;8.984;2024-02-21T02:03:09;2.90;99.90
9371;DHT22;4725;48.384;8.984;2024-02-21T02:08:09;3.00;99.90
9371;DHT22;4725;48.384;8.984;2024-02-21T02:10:37;3.10;99.90
9371;DHT22;4725;48.384;8.984;2024-02-21T02:13:04;3.10;99.90
9371;DHT22;4725;48.384;8.984;2024-02-21T02:15:38;3.20;99.90
9371;DHT22;4725;48.384;8.984;2024-02-21T02:18:05;3.10;99.90
9371;DHT22;4725;48.384;8.984;2024-02-21T02:20:32;3.10;99.90
9371;DHT22;4725;48.384;8.984;2024-02-21T02:22:59;3.00;99.90
9371;DHT22;4725;48.384;8.984;2024-02-21T02:25:27;3.00;99.90
9371;DHT22;4725;48.384;8.984;2024-02-21T02:27:55;2.90;99.90
9371;DHT22;4725;48.384;8.984;2024-02-21T02:30:21;2.90;99.90
9371;DHT22;4725;48.384;8.984;2024-02-21T02:32:48;2.80;99.90
9371;DHT22;4725;48.384;8.984;2024-02-21T02:35:15;2.80;99.90
9371;DHT22;4725;48.384;8.984;2024-02-21T02:37:48;2.80;99.90
9371;DHT22;4725;48.384;8.984;2024-02-21T02:40:15;2.80;99.90
9371;DHT22;4725;48.384;8.984;2024-02-21T02:42:43;2.90;99.90
9371;DHT22;4725;48.384;8.984;2024-02-21T02:45:10;2.90;99.90
9371;DHT22;4725;48.384;8.984;2024-02-21T02:47:38;2.90;99.90
9371;DHT22;4725;48.384;8.984;2024-02-21T02:50:07;3.00;99.90
9371;DHT22;4725;48.384;8.984;2024-02-21T02:52:34;3.00;99.90
9371;DHT22;4725;48.384;8.984;2024-02-21T02:55:01;3.10;99.90
9371;DHT22;4725;48.384;8.984;2024-02-21T02:59:56;3.00;99.90
9371;DHT22;4725;48.384;8.984;2024-02-21T03:02:23;3.00;99.90
9371;DHT22;4725;48.384;8.984;2024-02-21T03:04:50;3.00;99.90
9371;DHT22;4725;48.384;8.984;2024-02-21T03:07:17;3.20;99.90
9371;DHT22;4725;48.384;8.984;2024-02-21T03:09:44;3.40;99.90
9371;DHT22;4725;48.384;8.984;2024-02-21T03:12:11;3.70;99.90
9371;DHT22;4725;48.384;8.984;2024-02-21T03:14:37;3.80;99.90
9371;DHT22;4725;48.384;8.984;2024-02-21T03:17:06;3.80;99.90
9371;DHT22;4725;48.384;8.984;2024-02-21T03:19:32;3.80;99.90
9371;DHT22;4725;48.384;8.984;2024-02-21T03:21:59;3.80;99.90
9371;DHT22;4725;48.384;8.984;2024-02-21T03:24:26;3.70;99.90
9371;DHT22;4725;48.384;8.984;2024-02-21T03:26:54;3.70;99.90
9371;DHT22;4725;48.384;8.984;2024-02-21T03:29:21;3.70;99.90
9371;DHT22;4725;48.384;8.984;2024-02-21T03:31:48;3.60;99.90
9371;DHT22;4725;48.384;8.984;2024-02-21T03:36:43;3.50;99.90
9371;DHT22;4725;48.384;8.984;2024-02-21T03:39:10;3.50;99.90
9371;DHT22;4725;48.384;8.984;2024-02-21T03:41:37;3.40;99.90
9371;DHT22;4725;48.384;8.984;2024-02-21T03:44:04;3.50;99.90
9371;DHT22;4725;48.384;8.984;2024-02-21T03:46:31;3.50;99.90
9371;DHT22;4725;48.384;8.984;2024-02-21T03:51:27;3.60;99.90
9371;DHT22;4725;48.384;8.984;2024-02-21T03:53:54;3.60;99.90
9371;DHT22;4725;48.384;8.984;2024-02-21T03:56:21;3.70;99.90
9371;DHT22;4725;48.384;8.984;2024-02-21T04:01:15;3.90;99.90
9371;DHT22;4725;48.384;8.984;2024-02-21T04:03:43;3.80;99.90
9371;DHT22;4725;48.384;8.984;2024-02-21T04:06:10;3.60;99.90
9371;DHT22;4725;48.384;8.984;2024-02-21T04:08:39;3.50;99.90
9371;DHT22;4725;48.384;8.984;2024-02-21T04:11:06;3.50;99.90
9371;DHT22;4725;48.384;8.984;2024-02-21T04:13:32;3.50;99.90
9371;DHT22;4725;48.384;8.984;2024-02-21T04:15:59;3.50;99.90
9371;DHT22;4725;48.384;8.984;2024-02-21T04:18:26;3.50;99.90
9371;DHT22;4725;48.384;8.984;2024-02-21T04:20:53;3.50;99.90
9371;DHT22;4725;48.384;8.984;2024-02-21T04:23:20;3.50;99.90
9371;DHT22;4725;48.384;8.984;2024-02-21T04:25:48;3.50;99.90
9371;DHT22;4725;48.384;8.984;2024-02-21T04:28:15;3.30;99.90
9371;DHT22;4725;48.384;8.984;2024-02-21T04:30:42;3.20;99.90
9371;DHT22;4725;48.384;8.984;2024-02-21T04:33:09;2.70;99.90
9371;DHT22;4725;48.384;8.984;2024-02-21T04:35:36;3.00;99.90
9371;DHT22;4725;48.384;8.984;2024-02-21T04:38:03;3.00;99.90
9371;DHT22;4725;48.384;8.984;2024-02-21T04:40:30;2.80;99.90
9371;DHT22;4725;48.384;8.984;2024-02-21T04:42:59;2.50;99.90
9371;DHT22;4725;48.384;8.984;2024-02-21T04:45:25;2.50;99.90
9371;DHT22;4725;48.384;8.984;2024-02-21T04:47:52;2.40;99.90
9371;DHT22;4725;48.384;8.984;2024-02-21T04:50:19;2.30;99.90
9371;DHT22;4725;48.384;8.984;2024-02-21T04:55:14;2.10;99.90
9371;DHT22;4725;48.384;8.984;2024-02-21T04:57:41;2.10;99.90
9371;DHT22;4725;48.384;8.984;2024-02-21T05:00:10;2.00;99.90
9371;DHT22;4725;48.384;8.984;2024-02-21T05:02:37;1.90;99.90
9371;DHT22;4725;48.384;8.984;2024-02-21T05:05:04;1.80;99.90
9371;DHT22;4725;48.384;8.984;2024-02-21T05:07:31;1.80;99.90
9371;DHT22;4725;48.384;8.984;2024-02-21T05:09:58;1.90;99.90
9371;DHT22;4725;48.384;8.984;2024-02-21T05:12:26;1.70;99.90
9371;DHT22;4725;48.384;8.984;2024-02-21T05:14:55;1.70;99.90
9371;DHT22;4725;48.384;8.984;2024-02-21T05:17:23;1.60;99.90
9371;DHT22;4725;48.384;8.984;2024-02-21T05:19:50;1.50;99.90
9371;DHT22;4725;48.384;8.984;2024-02-21T05:22:17;1.60;99.90
9371;DHT22;4725;48.384;8.984;2024-02-21T05:24:44;1.60;99.90
9371;DHT22;4725;48.384;8.984;2024-02-21T05:27:11;1.70;99.90
9371;DHT22;4725;48.384;8.984;2024-02-21T05:29:38;1.80;99.90
9371;DHT22;4725;48.384;8.984;2024-02-21T05:34:33;1.90;99.90
9371;DHT22;4725;48.384;8.984;2024-02-21T05:37:00;1.90;99.90
9371;DHT22;4725;48.384;8.984;2024-02-21T05:39:27;2.00;99.90
9371;DHT22;4725;48.384;8.984;2024-02-21T05:41:54;2.00;99.90
9371;DHT22;4725;48.384;8.984;2024-02-21T05:46:48;1.90;99.90
9371;DHT22;4725;48.384;8.984;2024-02-21T05:49:15;2.00;99.90
9371;DHT22;4725;48.384;8.984;2024-02-21T05:51:44;1.90;99.90
9371;DHT22;4725;48.384;8.984;2024-02-21T05:54:10;1.90;99.90
9371;DHT22;4725;48.384;8.984;2024-02-21T05:56:37;5.10;99.90
9371;DHT22;4725;48.384;8.984;2024-02-21T05:59:04;1.70;99.90
9371;DHT22;4725;48.384;8.984;2024-02-21T06:01:31;1.70;99.90
9371;DHT22;4725;48.384;8.984;2024-02-21T06:03:58;1.90;99.90
9371;DHT22;4725;48.384;8.984;2024-02-21T06:06:24;1.90;99.90
9371;DHT22;4725;48.384;8.984;2024-02-21T06:08:53;1.80;99.90
9371;DHT22;4725;48.384;8.984;2024-02-21T06:11:19;1.70;99.90
9371;DHT22;4725;48.384;8.984;2024-02-21T06:16:13;1.50;99.90
9371;DHT22;4725;48.384;8.984;2024-02-21T06:18:40;1.50;99.90
9371;DHT22;4725;48.384;8.984;2024-02-21T06:21:07;1.50;99.90
9371;DHT22;4725;48.384;8.984;2024-02-21T06:23:36;1.60;99.90
9371;DHT22;4725;48.384;8.984;2024-02-21T06:26:04;1.60;99.90
9371;DHT22;4725;48.384;8.984;2024-02-21T06:28:31;1.60;99.90
9371;DHT22;4725;48.384;8.984;2024-02-21T06:30:58;1.60;99.90
9371;DHT22;4725;48.384;8.984;2024-02-21T06:33:25;1.50;99.90
9371;DHT22;4725;48.384;8.984;2024-02-21T06:35:52;1.50;99.90
9371;DHT22;4725;48.384;8.984;2024-02-21T06:38:19;1.60;99.90
9371;DHT22;4725;48.384;8.984;2024-02-21T06:40:46;1.50;99.90
9371;DHT22;4725;48.384;8.984;2024-02-21T06:43:20;1.40;99.90
9371;DHT22;4725;48.384;8.984;2024-02-21T06:45:47;1.50;99.90
9371;DHT22;4725;48.384;8.984;2024-02-21T06:48:17;1.50;99.90
9371;DHT22;4725;48.384;8.984;2024-02-21T06:50:44;1.60;99.90
9371;DHT22;4725;48.384;8.984;2024-02-21T06:53:11;1.50;99.90
9371;DHT22;4725;48.384;8.984;2024-02-21T06:55:38;1.60;99.90
9371;DHT22;4725;48.384;8.984;2024-02-21T06:58:05;1.50;99.90
9371;DHT22;4725;48.384;8.984;2024-02-21T07:00:38;1.60;99.90
9371;DHT22;4725;48.384;8.984;2024-02-21T07:03:05;1.50;99.90
9371;DHT22;4725;48.384;8.984;2024-02-21T07:05:32;1.50;99.90
9371;DHT22;4725;48.384;8.984;2024-02-21T07:07:59;1.50;99.90
9371;DHT22;4725;48.384;8.984;2024-02-21T07:10:26;1.50;99.90
9371;DHT22;4725;48.384;8.984;2024-02-21T07:12:54;1.70;99.90
9371;DHT22;4725;48.384;8.984;2024-02-21T07:15:21;1.80;99.90
9371;DHT22;4725;48.384;8.984;2024-02-21T07:17:49;1.80;99.90
9371;DHT22;4725;48.384;8.984;2024-02-21T07:20:16;1.80;99.90
9371;DHT22;4725;48.384;8.984;2024-02-21T07:22:43;1.90;99.90
9371;DHT22;4725;48.384;8.984;2024-02-21T07:25:10;1.90;99.90
9371;DHT22;4725;48.384;8.984;2024-02-21T07:27:36;1.90;99.90
9371;DHT22;4725;48.384;8.984;2024-02-21T07:30:05;2.10;99.90
9371;DHT22;4725;48.384;8.984;2024-02-21T07:32:32;2.60;99.90
9371;DHT22;4725;48.384;8.984;2024-02-21T07:35:01;2.60;99.90
9371;DHT22;4725;48.384;8.984;2024-02-21T07:39:55;3.00;99.90
9371;DHT22;4725;48.384;8.984;2024-02-21T07:42:21;3.30;99.90
9371;DHT22;4725;48.384;8.984;2024-02-21T07:44:48;3.30;99.90
9371;DHT22;4725;48.384;8.984;2024-02-21T07:47:15;3.50;99.90
9371;DHT22;4725;48.384;8.984;2024-02-21T07:49:44;3.60;99.90
9371;DHT22;4725;48.384;8.984;2024-02-21T07:52:12;4.00;99.90
9371;DHT22;4725;48.384;8.984;2024-02-21T07:54:39;4.00;99.90
9371;DHT22;4725;48.384;8.984;2024-02-21T07:57:06;4.20;99.90
9371;DHT22;4725;48.384;8.984;2024-02-21T07:59:33;4.40;99.90
9371;DHT22;4725;48.384;8.984;2024-02-21T08:02:00;4.60;99.90
9371;DHT22;4725;48.384;8.984;2024-02-21T08:04:28;4.70;99.90
9371;DHT22;4725;48.384;8.984;2024-02-21T08:09:26;5.00;99.90
9371;DHT22;4725;48.384;8.984;2024-02-21T08:11:54;5.20;99.90
9371;DHT22;4725;48.384;8.984;2024-02-21T08:14:21;5.40;99.90
9371;DHT22;4725;48.384;8.984;2024-02-21T08:16:50;5.50;99.90
9371;DHT22;4725;48.384;8.984;2024-02-21T08:21:45;5.60;99.90
9371;DHT22;4725;48.384;8.984;2024-02-21T08:24:13;5.80;99.90
9371;DHT22;4725;48.384;8.984;2024-02-21T08:26:41;5.90;99.90
9371;DHT22;4725;48.384;8.984;2024-02-21T08:31:37;6.10;99.90
9371;DHT22;4725;48.384;8.984;2024-02-21T08:34:04;6.30;99.90
9371;DHT22;4725;48.384;8.984;2024-02-21T08:36:32;6.40;99.90
9371;DHT22;4725;48.384;8.984;2024-02-21T08:38:59;6.50;99.90
9371;DHT22;4725;48.384;8.984;2024-02-21T08:41:26;6.70;99.90
9371;DHT22;4725;48.384;8.984;2024-02-21T08:43:55;6.90;99.90
9371;DHT22;4725;48.384;8.984;2024-02-21T08:46:22;7.10;99.90
9371;DHT22;4725;48.384;8.984;2024-02-21T08:48:50;7.10;99.90
9371;DHT22;4725;48.384;8.984;2024-02-21T08:51:17;7.10;99.90
9371;DHT22;4725;48.384;8.984;2024-02-21T08:53:44;7.00;99.90
9371;DHT22;4725;48.384;8.984;2024-02-21T08:56:11;7.00;99.90
9371;DHT22;4725;48.384;8.984;2024-02-21T08:58:39;6.90;99.90
9371;DHT22;4725;48.384;8.984;2024-02-21T09:01:08;6.80;99.90
9371;DHT22;4725;48.384;8.984;2024-02-21T09:03:36;6.80;99.90
9371;DHT22;4725;48.384;8.984;2024-02-21T09:08:31;7.00;99.90
9371;DHT22;4725;48.384;8.984;2024-02-21T09:10:59;6.70;99.90
9371;DHT22;4725;48.384;8.984;2024-02-21T09:13:26;6.60;99.90
9371;DHT22;4725;48.384;8.984;2024-02-21T09:18:22;6.80;99.90
9371;DHT22;4725;48.384;8.984;2024-02-21T09:20:49;6.80;99.90
9371;DHT22;4725;48.384;8.984;2024-02-21T09:23:16;7.20;99.90
9371;DHT22;4725;48.384;8.984;2024-02-21T09:25:45;7.30;99.90
9371;DHT22;4725;48.384;8.984;2024-02-21T09:28:12;7.40;99.90
9371;DHT22;4725;48.384;8.984;2024-02-21T09:30:39;7.20;99.90
9371;DHT22;4725;48.384;8.984;2024-02-21T09:33:06;7.30;99.90
9371;DHT22;4725;48.384;8.984;2024-02-21T09:35:34;7.20;99.90
9371;DHT22;4725;48.384;8.984;2024-02-21T09:38:01;7.40;99.90
9371;DHT22;4725;48.384;8.984;2024-02-21T09:40:28;7.60;99.90
9371;DHT22;4725;48.384;8.984;2024-02-21T09:43:02;8.10;99.90
9371;DHT22;4725;48.384;8.984;2024-02-21T09:45:30;8.20;99.90
9371;DHT22;4725;48.384;8.984;2024-02-21T09:48:15;8.40;99.90
9371;DHT22;4725;48.384;8.984;2024-02-21T09:50:49;8.60;99.90
9371;DHT22;4725;48.384;8.984;2024-02-21T09:53:18;9.00;99.90
9371;DHT22;4725;48.384;8.984;2024-02-21T09:55:46;9.00;99.90
9371;DHT22;4725;48.384;8.984;2024-02-21T09:58:15;9.00;99.90
9371;DHT22;4725;48.384;8.984;2024-02-21T10:00:42;9.40;99.90
9371;DHT22;4725;48.384;8.984;2024-02-21T10:03:09;9.60;99.90
9371;DHT22;4725;48.384;8.984;2024-02-21T10:05:37;9.60;99.90
9371;DHT22;4725;48.384;8.984;2024-02-21T10:08:06;9.70;99.90
9371;DHT22;4725;48.384;8.984;2024-02-21T10:10:41;9.80;99.90
9371;DHT22;4725;48.384;8.984;2024-02-21T10:13:09;9.80;99.90
9371;DHT22;4725;48.384;8.984;2024-02-21T10:15:36;10.00;99.90
9371;DHT22;4725;48.384;8.984;2024-02-21T10:18:03;11.00;99.90
9371;DHT22;4725;48.384;8.984;2024-02-21T10:20:32;11.00;99.90
9371;DHT22;4725;48.384;8.984;2024-02-21T10:23:02;11.10;99.90
9371;DHT22;4725;48.384;8.984;2024-02-21T10:25:35;11.20;99.90
9371;DHT22;4725;48.384;8.984;2024-02-21T10:30:31;11.50;99.90
9371;DHT22;4725;48.384;8.984;2024-02-21T10:32:57;11.40;99.90
9371;DHT22;4725;48.384;8.984;2024-02-21T10:35:28;11.60;99.90
9371;DHT22;4725;48.384;8.984;2024-02-21T10:37:56;11.50;99.90
9371;DHT22;4725;48.384;8.984;2024-02-21T10:40:27;11.80;99.90
9371;DHT22;4725;48.384;8.984;2024-02-21T10:45:29;12.20;99.90
9371;DHT22;4725;48.384;8.984;2024-02-21T10:48:06;12.10;99.90
9371;DHT22;4725;48.384;8.984;2024-02-21T10:50:41;12.10;99.90
9371;DHT22;4725;48.384;8.984;2024-02-21T10:53:20;12.20;99.90
9371;DHT22;4725;48.384;8.984;2024-02-21T10:55:58;12.30;99.90
9371;DHT22;4725;48.384;8.984;2024-02-21T10:58:31;12.30;99.90
9371;DHT22;4725;48.384;8.984;2024-02-21T11:00:58;12.50;99.90
9371;DHT22;4725;48.384;8.984;2024-02-21T11:03:26;12.50;99.90
9371;DHT22;4725;48.384;8.984;2024-02-21T11:05:53;12.50;99.90
9371;DHT22;4725;48.384;8.984;2024-02-21T11:08:20;12.30;99.90
9371;DHT22;4725;48.384;8.984;2024-02-21T11:10:47;12.60;99.90
9371;DHT22;4725;48.384;8.984;2024-02-21T11:13:14;12.50;99.90
9371;DHT22;4725;48.384;8.984;2024-02-21T11:15:42;12.40;99.90
9371;DHT22;4725;48.384;8.984;2024-02-21T11:20:37;12.40;99.90
9371;DHT22;4725;48.384;8.984;2024-02-21T11:23:04;12.50;99.90
9371;DHT22;4725;48.384;8.984;2024-02-21T11:25:32;12.50;99.90
9371;DHT22;4725;48.384;8.984;2024-02-21T11:28:00;12.00;99.90
9371;DHT22;4725;48.384;8.984;2024-02-21T11:30:27;12.10;99.90
9371;DHT22;4725;48.384;8.984;2024-02-21T11:33:01;12.20;99.90
9371;DHT22;4725;48.384;8.984;2024-02-21T11:35:32;12.40;99.90
9371;DHT22;4725;48.384;8.984;2024-02-21T11:38:08;12.50;99.90
9371;DHT22;4725;48.384;8.984;2024-02-21T11:40:38;12.70;99.90
9371;DHT22;4725;48.384;8.984;2024-02-21T11:43:04;12.90;99.50
9371;DHT22;4725;48.384;8.984;2024-02-21T11:45:31;12.90;99.20
9371;DHT22;4725;48.384;8.984;2024-02-21T11:48:00;13.10;99.50
9371;DHT22;4725;48.384;8.984;2024-02-21T11:50:29;13.00;98.80
9371;DHT22;4725;48.384;8.984;2024-02-21T11:52:57;13.10;98.20
9371;DHT22;4725;48.384;8.984;2024-02-21T11:55:24;13.30;98.90
9371;DHT22;4725;48.384;8.984;2024-02-21T11:57:51;13.50;98.20
9371;DHT22;4725;48.384;8.984;2024-02-21T12:00:19;13.80;96.00
9371;DHT22;4725;48.384;8.984;2024-02-21T12:02:47;14.30;95.70
9371;DHT22;4725;48.384;8.984;2024-02-21T12:05:15;14.40;96.70
9371;DHT22;4725;48.384;8.984;2024-02-21T12:07:42;14.50;95.30
9371;DHT22;4725;48.384;8.984;2024-02-21T12:10:10;14.40;95.50
9371;DHT22;4725;48.384;8.984;2024-02-21T12:12:37;14.40;93.60
9371;DHT22;4725;48.384;8.984;2024-02-21T12:15:05;14.50;94.00
9371;DHT22;4725;48.384;8.984;2024-02-21T12:17:32;14.70;94.50
9371;DHT22;4725;48.384;8.984;2024-02-21T12:20:00;14.40;94.60
9371;DHT22;4725;48.384;8.984;2024-02-21T12:22:30;13.90;94.70
9371;DHT22;4725;48.384;8.984;2024-02-21T12:24:58;14.00;94.80
9371;DHT22;4725;48.384;8.984;2024-02-21T12:27:27;14.50;93.40
9371;DHT22;4725;48.384;8.984;2024-02-21T12:29:54;14.60;91.40
9371;DHT22;4725;48.384;8.984;2024-02-21T12:32:21;15.10;91.00
9371;DHT22;4725;48.384;8.984;2024-02-21T12:34:48;15.10;91.30
9371;DHT22;4725;48.384;8.984;2024-02-21T12:37:14;14.80;90.00
9371;DHT22;4725;48.384;8.984;2024-02-21T12:39:43;14.80;91.00
9371;DHT22;4725;48.384;8.984;2024-02-21T12:44:38;15.00;89.00
9371;DHT22;4725;48.384;8.984;2024-02-21T12:47:05;14.90;88.70
9371;DHT22;4725;48.384;8.984;2024-02-21T12:49:31;14.90;86.70
9371;DHT22;4725;48.384;8.984;2024-02-21T12:51:58;14.80;90.40
9371;DHT22;4725;48.384;8.984;2024-02-21T12:54:26;16.60;89.20
9371;DHT22;4725;48.384;8.984;2024-02-21T12:59:21;14.80;89.50
9371;DHT22;4725;48.384;8.984;2024-02-21T13:01:48;14.90;89.40
9371;DHT22;4725;48.384;8.984;2024-02-21T13:04:15;15.10;85.60
9371;DHT22;4725;48.384;8.984;2024-02-21T13:06:42;14.80;87.70
9371;DHT22;4725;48.384;8.984;2024-02-21T13:09:10;14.80;87.20
9371;DHT22;4725;48.384;8.984;2024-02-21T13:11:37;14.90;86.90
9371;DHT22;4725;48.384;8.984;2024-02-21T13:14:06;14.60;84.70
9371;DHT22;4725;48.384;8.984;2024-02-21T13:16:32;15.00;86.30
9371;DHT22;4725;48.384;8.984;2024-02-21T13:19:04;15.00;86.50
9371;DHT22;4725;48.384;8.984;2024-02-21T13:21:31;15.30;84.10
9371;DHT22;4725;48.384;8.984;2024-02-21T13:23:58;15.30;83.50
9371;DHT22;4725;48.384;8.984;2024-02-21T13:26:25;15.20;84.80
9371;DHT22;4725;48.384;8.984;2024-02-21T13:28:52;15.30;85.00
9371;DHT22;4725;48.384;8.984;2024-02-21T13:31:20;14.70;80.80
9371;DHT22;4725;48.384;8.984;2024-02-21T13:33:47;14.70;84.30
9371;DHT22;4725;48.384;8.984;2024-02-21T13:36:14;14.60;87.10
9371;DHT22;4725;48.384;8.984;2024-02-21T13:38:41;14.70;89.20
9371;DHT22;4725;48.384;8.984;2024-02-21T13:41:08;14.60;87.50
9371;DHT22;4725;48.384;8.984;2024-02-21T13:43:34;14.70;81.40
9371;DHT22;4725;48.384;8.984;2024-02-21T13:46:02;14.70;82.60
9371;DHT22;4725;48.384;8.984;2024-02-21T13:50:59;14.60;85.30
9371;DHT22;4725;48.384;8.984;2024-02-21T13:53:27;14.50;86.30
9371;DHT22;4725;48.384;8.984;2024-02-21T13:55:54;14.60;87.40
9371;DHT22;4725;48.384;8.984;2024-02-21T13:58:21;14.50;84.90
9371;DHT22;4725;48.384;8.984;2024-02-21T14:00:48;14.20;87.60
9371;DHT22;4725;48.384;8.984;2024-02-21T14:03:16;13.90;86.60
9371;DHT22;4725;48.384;8.984;2024-02-21T14:05:45;13.90;88.60
9371;DHT22;4725;48.384;8.984;2024-02-21T14:08:13;13.90;85.10
9371;DHT22;4725;48.384;8.984;2024-02-21T14:10:41;13.80;86.70
9371;DHT22;4725;48.384;8.984;2024-02-21T14:13:08;13.60;86.40
9371;DHT22;4725;48.384;8.984;2024-02-21T14:15:34;13.50;87.90
9371;DHT22;4725;48.384;8.984;2024-02-21T14:18:03;13.50;88.50
9371;DHT22;4725;48.384;8.984;2024-02-21T14:20:31;13.40;88.30
9371;DHT22;4725;48.384;8.984;2024-02-21T14:22:59;13.50;89.30
9371;DHT22;4725;48.384;8.984;2024-02-21T14:25:26;13.40;90.30
9371;DHT22;4725;48.384;8.984;2024-02-21T14:27:53;13.40;90.70
9371;DHT22;4725;48.384;8.984;2024-02-21T14:30:20;13.30;90.30
9371;DHT22;4725;48.384;8.984;2024-02-21T14:32:47;13.10;91.70
9371;DHT22;4725;48.384;8.984;2024-02-21T14:35:14;13.00;91.50
9371;DHT22;4725;48.384;8.984;2024-02-21T14:37:41;13.00;92.50
9371;DHT22;4725;48.384;8.984;2024-02-21T14:40:10;13.00;92.80
9371;DHT22;4725;48.384;8.984;2024-02-21T14:42:37;12.90;91.70
9371;DHT22;4725;48.384;8.984;2024-02-21T14:45:05;12.90;91.90
9371;DHT22;4725;48.384;8.984;2024-02-21T14:47:32;12.70;91.80
9371;DHT22;4725;48.384;8.984;2024-02-21T14:49:59;12.60;92.30
9371;DHT22;4725;48.384;8.984;2024-02-21T14:52:26;12.50;92.20
9371;DHT22;4725;48.384;8.984;2024-02-21T14:54:55;12.50;92.70
9371;DHT22;4725;48.384;8.984;2024-02-21T14:57:23;12.40;92.70
9371;DHT22;4725;48.384;8.984;2024-02-21T14:59:50;12.40;93.40
9371;DHT22;4725;48.384;8.984;2024-02-21T15:02:21;12.10;94.80
9371;DHT22;4725;48.384;8.984;2024-02-21T15:04:48;12.10;95.00
9371;DHT22;4725;48.384;8.984;2024-02-21T15:07:16;12.10;94.80
9371;DHT22;4725;48.384;8.984;2024-02-21T15:09:44;12.00;93.50
9371;DHT22;4725;48.384;8.984;2024-02-21T15:14:39;12.10;94.20
9371;DHT22;4725;48.384;8.984;2024-02-21T15:17:06;11.90;93.60
9371;DHT22;4725;48.384;8.984;2024-02-21T15:19:33;11.90;94.50
9371;DHT22;4725;48.384;8.984;2024-02-21T15:22:00;11.90;94.70
9371;DHT22;4725;48.384;8.984;2024-02-21T15:24:27;11.80;94.20
9371;DHT22;4725;48.384;8.984;2024-02-21T15:26:54;11.80;95.30
9371;DHT22;4725;48.384;8.984;2024-02-21T15:29:20;11.80;97.40
9371;DHT22;4725;48.384;8.984;2024-02-21T15:31:50;11.70;97.30
9371;DHT22;4725;48.384;8.984;2024-02-21T15:34:18;11.70;97.00
9371;DHT22;4725;48.384;8.984;2024-02-21T15:36:45;11.70;98.30
9371;DHT22;4725;48.384;8.984;2024-02-21T15:39:11;11.70;98.50
9371;DHT22;4725;48.384;8.984;2024-02-21T15:41:39;11.50;98.90
9371;DHT22;4725;48.384;8.984;2024-02-21T15:44:06;11.30;98.70
9371;DHT22;4725;48.384;8.984;2024-02-21T15:46:33;11.20;99.50
9371;DHT22;4725;48.384;8.984;2024-02-21T15:49:03;11.10;99.80
9371;DHT22;4725;48.384;8.984;2024-02-21T15:51:30;11.00;99.90
9371;DHT22;4725;48.384;8.984;2024-02-21T15:53:58;10.90;99.90
9371;DHT22;4725;48.384;8.984;2024-02-21T15:58:53;10.80;99.90
9371;DHT22;4725;48.384;8.984;2024-02-21T16:01:20;10.70;99.90
9371;DHT22;4725;48.384;8.984;2024-02-21T16:03:48;10.60;99.90
9371;DHT22;4725;48.384;8.984;2024-02-21T16:06:17;10.60;99.90
9371;DHT22;4725;48.384;8.984;2024-02-21T16:08:43;10.50;99.90
9371;DHT22;4725;48.384;8.984;2024-02-21T16:11:13;10.30;99.90
9371;DHT22;4725;48.384;8.984;2024-02-21T16:13:42;10.30;99.90
9371;DHT22;4725;48.384;8.984;2024-02-21T16:16:11;10.30;99.90
9371;DHT22;4725;48.384;8.984;2024-02-21T16:18:38;10.30;99.90
9371;DHT22;4725;48.384;8.984;2024-02-21T16:21:05;10.30;99.90
9371;DHT22;4725;48.384;8.984;2024-02-21T16:23:35;10.20;99.90
9371;DHT22;4725;48.384;8.984;2024-02-21T16:26:02;10.30;99.90
9371;DHT22;4725;48.384;8.984;2024-02-21T16:28:29;10.30;99.90
9371;DHT22;4725;48.384;8.984;2024-02-21T16:30:56;10.20;99.90
9371;DHT22;4725;48.384;8.984;2024-02-21T16:38:20;10.20;99.90
9371;DHT22;4725;48.384;8.984;2024-02-21T16:40:48;10.10;99.90
9371;DHT22;4725;48.384;8.984;2024-02-21T16:43:15;10.10;99.90
9371;DHT22;4725;48.384;8.984;2024-02-21T16:45:43;10.10;99.90
9371;DHT22;4725;48.384;8.984;2024-02-21T16:48:10;10.00;99.90
9371;DHT22;4725;48.384;8.984;2024-02-21T16:50:37;9.90;99.90
9371;DHT22;4725;48.384;8.984;2024-02-21T16:53:05;9.80;99.90
9371;DHT22;4725;48.384;8.984;2024-02-21T16:58:01;9.70;99.90
9371;DHT22;4725;48.384;8.984;2024-02-21T17:00:30;9.70;99.90
9371;DHT22;4725;48.384;8.984;2024-02-21T17:02:57;9.70;99.90
9371;DHT22;4725;48.384;8.984;2024-02-21T17:07:52;9.50;99.90
9371;DHT22;4725;48.384;8.984;2024-02-21T17:10:19;9.50;99.90
9371;DHT22;4725;48.384;8.984;2024-02-21T17:12:45;9.30;99.90
9371;DHT22;4725;48.384;8.984;2024-02-21T17:15:14;9.30;99.90
9371;DHT22;4725;48.384;8.984;2024-02-21T17:17:41;9.20;99.90
9371;DHT22;4725;48.384;8.984;2024-02-21T17:20:09;9.10;99.90
9371;DHT22;4725;48.384;8.984;2024-02-21T17:22:37;8.90;99.90
9371;DHT22;4725;48.384;8.984;2024-02-21T17:25:04;8.90;99.90
9371;DHT22;4725;48.384;8.984;2024-02-21T17:27:35;8.80;99.90